createdAt,value
2022-12-04T00:01:29.560Z,56.83
2022-12-04T00:03:59.724Z,57.72
2022-12-04T00:06:29.702Z,53.97
2022-12-04T00:08:58.150Z,55.50
2022-12-04T00:11:28.845Z,53.78
2022-12-04T00:14:06.157Z,58.15
2022-12-04T00:16:35.432Z,53.30
2022-12-04T00:19:04.305Z,56.90
2022-12-04T00:21:32.447Z,47.28
2022-12-04T00:24:00.566Z,53.67
2022-12-04T00:26:31.080Z,61.67
2022-12-04T00:29:01.044Z,53.47
2022-12-04T00:31:31.335Z,56.50
2022-12-04T00:34:02.198Z,58.30
2022-12-04T00:36:31.345Z,53.03
2022-12-04T00:39:01.125Z,51.33
2022-12-04T00:41:30.918Z,52.85
2022-12-04T00:44:01.762Z,61.40
2022-12-04T00:46:30.199Z,55.20
2022-12-04T00:48:59.519Z,52.30
2022-12-04T00:51:27.737Z,57.50
2022-12-04T00:53:56.634Z,56.97
2022-12-04T00:56:26.858Z,53.13
2022-12-04T00:58:55.627Z,54.40
2022-12-04T01:01:26.412Z,42.90
2022-12-04T01:03:56.129Z,46.08
2022-12-04T01:06:26.247Z,53.95
2022-12-04T01:08:56.184Z,48.10
2022-12-04T01:11:26.602Z,53.05
2022-12-04T01:13:55.190Z,52.10
2022-12-04T01:16:27.437Z,56.70
2022-12-04T01:18:56.039Z,56.38
2022-12-04T01:21:24.510Z,45.10
2022-12-04T01:23:53.597Z,55.67
2022-12-04T01:26:21.759Z,54.17
2022-12-04T01:28:50.274Z,58.90
2022-12-04T01:31:20.991Z,61.70
2022-12-04T01:33:51.483Z,54.30
2022-12-04T01:36:22.916Z,50.28
2022-12-04T01:38:51.575Z,54.30
2022-12-04T01:41:22.187Z,45.57
2022-12-04T01:44:09.102Z,53.22
2022-12-04T01:46:37.326Z,53.78
2022-12-04T01:49:09.275Z,52.42
2022-12-04T01:51:41.050Z,56.30
2022-12-04T01:54:11.998Z,54.33
2022-12-04T01:56:45.280Z,49.15
2022-12-04T01:59:16.831Z,57.40
2022-12-04T02:01:53.884Z,53.10
2022-12-04T02:04:23.975Z,46.70
2022-12-04T02:06:52.290Z,58.17
2022-12-04T02:09:26.820Z,49.72
2022-12-04T02:12:04.511Z,53.30
2022-12-04T02:14:43.567Z,52.45
2022-12-04T02:17:19.368Z,44.63
2022-12-04T02:20:20.053Z,57.80
2022-12-04T02:23:19.714Z,50.63
2022-12-04T02:25:55.393Z,56.55
2022-12-04T02:28:29.335Z,51.47
2022-12-04T02:31:01.621Z,53.25
2022-12-04T02:33:34.491Z,49.25
2022-12-04T02:36:07.803Z,55.33
2022-12-04T02:38:38.766Z,57.92
2022-12-04T02:41:12.092Z,60.60
2022-12-04T02:43:45.846Z,57.13
2022-12-04T02:46:20.073Z,56.83
2022-12-04T02:48:52.995Z,60.67
2022-12-04T02:51:24.998Z,57.67
2022-12-04T02:53:58.002Z,52.45
2022-12-04T02:56:29.999Z,56.38
2022-12-04T02:59:02.405Z,58.70
2022-12-04T03:01:36.063Z,53.47
2022-12-04T03:04:10.202Z,53.50
2022-12-04T03:06:41.395Z,54.60
2022-12-04T03:09:13.668Z,47.70
2022-12-04T03:11:46.116Z,50.10
2022-12-04T03:14:19.259Z,51.58
2022-12-04T03:16:49.391Z,51.28
2022-12-04T03:19:22.510Z,49.70
2022-12-04T03:21:55.292Z,49.70
2022-12-04T03:24:28.003Z,50.75
2022-12-04T03:27:01.397Z,51.83
2022-12-04T03:29:36.871Z,55.85
2022-12-04T03:32:11.498Z,54.22
2022-12-04T03:34:49.511Z,52.42
2022-12-04T03:37:21.355Z,57.08
2022-12-04T03:39:58.289Z,54.58
2022-12-04T03:42:29.603Z,58.15
2022-12-04T03:45:04.406Z,52.08
2022-12-04T03:47:39.026Z,57.63
2022-12-04T03:50:11.355Z,52.15
2022-12-04T03:52:49.707Z,48.22
2022-12-04T03:55:26.391Z,55.78
2022-12-04T03:58:00.628Z,53.17
2022-12-04T04:00:31.526Z,51.35
2022-12-04T04:03:05.147Z,49.95
2022-12-04T04:05:35.635Z,50.13
2022-12-04T04:08:22.617Z,53.58
2022-12-04T04:10:51.864Z,48.65
2022-12-04T04:13:41.283Z,57.45
2022-12-04T04:19:17.122Z,55.13
2022-12-04T04:22:05.213Z,47.40
2022-12-04T04:24:40.531Z,55.53
2022-12-04T04:27:08.637Z,53.35
2022-12-04T04:29:37.479Z,53.30
2022-12-04T04:32:15.557Z,52.55
2022-12-04T04:34:51.805Z,52.75
2022-12-04T04:37:28.987Z,54.08
2022-12-04T04:40:03.091Z,55.85
2022-12-04T04:42:36.083Z,51.97
2022-12-04T04:45:12.669Z,54.72
2022-12-04T04:47:46.576Z,51.33
2022-12-04T04:50:16.247Z,50.45
2022-12-04T04:55:17.117Z,48.15
2022-12-04T04:57:45.300Z,52.28
2022-12-04T05:00:17.266Z,49.08
2022-12-04T05:02:48.684Z,49.55
2022-12-04T05:05:17.568Z,50.78
2022-12-04T05:07:46.002Z,47.45
2022-12-04T05:10:14.164Z,48.15
2022-12-04T05:12:42.300Z,46.80
2022-12-04T05:15:11.374Z,48.53
2022-12-04T05:17:39.588Z,52.03
2022-12-04T05:20:11.309Z,49.03
2022-12-04T05:22:39.642Z,59.22
2022-12-04T05:25:08.734Z,49.75
2022-12-04T05:27:37.078Z,54.45
2022-12-04T05:30:06.421Z,50.33
2022-12-04T05:32:34.639Z,49.08
2022-12-04T05:35:07.731Z,50.95
2022-12-04T05:37:41.601Z,52.58
2022-12-04T05:40:11.155Z,51.72
2022-12-04T05:45:08.015Z,52.67
2022-12-04T05:47:39.451Z,53.58
2022-12-04T05:50:09.369Z,49.97
2022-12-04T05:52:39.315Z,54.22
2022-12-04T05:55:08.115Z,52.15
2022-12-04T05:57:36.203Z,54.10
2022-12-04T06:00:05.033Z,55.65
2022-12-04T06:02:35.743Z,48.13
2022-12-04T06:05:04.073Z,54.15
2022-12-04T06:07:32.641Z,51.03
2022-12-04T06:10:02.238Z,48.97
2022-12-04T06:14:59.682Z,42.28
2022-12-04T06:17:27.827Z,54.65
2022-12-04T06:19:56.500Z,52.85
2022-12-04T06:22:24.781Z,48.67
2022-12-04T06:24:52.884Z,50.47
2022-12-04T06:27:27.708Z,48.72
2022-12-04T06:29:56.786Z,47.92
2022-12-04T06:32:25.105Z,38.28
2022-12-04T06:34:53.836Z,52.13
2022-12-04T06:37:24.215Z,48.85
2022-12-04T06:39:52.353Z,53.42
2022-12-04T06:42:22.963Z,51.63
2022-12-04T06:47:18.962Z,57.15
2022-12-04T06:49:50.671Z,45.60
2022-12-04T06:52:19.051Z,44.85
2022-12-04T06:54:47.209Z,48.13
2022-12-04T06:57:15.574Z,45.08
2022-12-04T06:59:45.254Z,47.50
2022-12-04T07:02:13.394Z,49.83
2022-12-04T07:04:41.778Z,49.03
2022-12-04T07:07:10.734Z,46.55
2022-12-04T07:09:39.281Z,55.10
2022-12-04T07:12:08.115Z,50.28
2022-12-04T07:14:36.247Z,43.53
2022-12-04T07:17:05.748Z,45.90
2022-12-04T07:22:02.190Z,51.05
2022-12-04T07:24:30.305Z,48.17
2022-12-04T07:26:58.402Z,48.78
2022-12-04T07:29:26.486Z,50.25
2022-12-04T07:31:54.648Z,53.30
2022-12-04T07:34:24.302Z,51.25
2022-12-04T07:39:20.703Z,44.72
2022-12-04T07:41:48.894Z,59.42
2022-12-04T07:44:17.107Z,51.70
2022-12-04T07:46:45.355Z,52.55
2022-12-04T07:49:13.946Z,48.42
2022-12-04T07:51:43.426Z,46.40
2022-12-04T07:54:11.512Z,52.72
2022-12-04T07:56:39.607Z,48.20
2022-12-04T07:59:07.700Z,46.72
2022-12-04T08:01:36.385Z,48.75
2022-12-04T08:04:04.870Z,50.63
2022-12-04T08:06:35.212Z,51.10
2022-12-04T08:09:09.513Z,57.25
2022-12-04T08:11:38.065Z,54.92
2022-12-04T08:14:08.871Z,54.70
2022-12-04T08:16:37.392Z,53.30
2022-12-04T08:19:05.802Z,56.33
2022-12-04T08:21:34.773Z,51.30
2022-12-04T08:24:04.481Z,56.38
2022-12-04T08:26:34.332Z,59.58
2022-12-04T08:29:02.897Z,60.67
2022-12-04T08:31:33.899Z,66.82
2022-12-04T08:34:03.874Z,59.70
2022-12-04T08:36:32.899Z,66.30
2022-12-04T08:39:01.122Z,42.88
2022-12-04T08:41:30.818Z,64.38
2022-12-04T08:43:59.547Z,59.10
2022-12-04T08:46:28.968Z,65.18
2022-12-04T08:51:27.629Z,60.38
2022-12-04T08:53:57.433Z,59.85
2022-12-04T08:56:25.984Z,70.32
2022-12-04T08:58:56.910Z,65.15
2022-12-04T09:01:25.769Z,58.10
2022-12-04T09:03:54.349Z,54.53
2022-12-04T09:06:23.488Z,72.95
2022-12-04T09:08:54.277Z,70.03
2022-12-04T09:11:24.587Z,67.35
2022-12-04T09:13:53.123Z,80.03
2022-12-04T09:16:24.944Z,75.22
2022-12-04T09:18:53.748Z,68.97
2022-12-04T09:21:23.287Z,75.35
2022-12-04T09:26:23.509Z,72.13
2022-12-04T09:28:53.289Z,64.30
2022-12-04T09:31:23.613Z,62.80
2022-12-04T09:33:52.166Z,61.22
2022-12-04T09:36:20.653Z,67.07
2022-12-04T09:38:50.448Z,68.32
2022-12-04T09:41:40.085Z,80.38
2022-12-04T09:44:14.872Z,67.32
2022-12-04T09:46:51.350Z,78.70
2022-12-04T09:49:23.822Z,77.03
2022-12-04T09:51:53.218Z,71.03
2022-12-04T09:54:24.908Z,59.85
2022-12-04T09:56:56.489Z,74.57
2022-12-04T09:59:27.283Z,68.75
2022-12-04T10:02:03.669Z,67.50
2022-12-04T10:04:31.990Z,65.20
2022-12-04T10:07:08.154Z,67.75
2022-12-04T10:09:44.855Z,70.53
2022-12-04T10:12:21.341Z,60.83
2022-12-04T10:15:08.668Z,63.80
2022-12-04T10:18:04.279Z,64.40
2022-12-04T10:20:56.497Z,73.55
2022-12-04T10:23:33.873Z,63.55
2022-12-04T10:26:05.147Z,65.80
2022-12-04T10:28:38.081Z,58.75
2022-12-04T10:31:11.007Z,58.03
2022-12-04T10:33:45.111Z,57.45
2022-12-04T10:36:17.120Z,57.55
2022-12-04T10:38:51.027Z,66.47
2022-12-04T10:41:28.854Z,61.35
2022-12-04T10:43:57.387Z,61.20
2022-12-04T10:46:28.332Z,64.55
2022-12-04T10:49:01.127Z,66.07
2022-12-04T10:51:36.881Z,60.13
2022-12-04T10:54:17.542Z,56.28
2022-12-04T10:56:52.707Z,62.78
2022-12-04T10:59:20.869Z,56.25
2022-12-04T11:01:49.276Z,61.47
2022-12-04T11:04:25.717Z,63.92
2022-12-04T11:07:04.223Z,64.25
2022-12-04T11:09:33.188Z,68.00
2022-12-04T11:12:11.285Z,61.60
2022-12-04T11:14:45.516Z,63.35
2022-12-04T11:17:19.918Z,65.38
2022-12-04T11:19:59.700Z,67.05
2022-12-04T11:22:28.022Z,65.28
2022-12-04T11:24:59.259Z,66.43
2022-12-04T11:27:31.623Z,64.15
2022-12-04T11:30:02.562Z,58.47
2022-12-04T11:32:33.522Z,64.90
2022-12-04T11:35:08.480Z,78.95
2022-12-04T11:37:42.057Z,51.97
2022-12-04T11:40:19.417Z,70.70
2022-12-04T11:43:00.758Z,51.10
2022-12-04T11:45:28.906Z,60.80
2022-12-04T11:47:59.137Z,61.05
2022-12-04T11:50:39.003Z,62.47
2022-12-04T11:53:15.639Z,55.42
2022-12-04T11:56:02.987Z,50.53
2022-12-04T11:58:46.558Z,58.88
2022-12-04T12:01:27.312Z,56.42
2022-12-04T12:04:19.312Z,60.78
2022-12-04T12:07:00.876Z,62.88
2022-12-04T12:09:36.151Z,64.72
2022-12-04T12:12:09.675Z,58.67
2022-12-04T12:14:46.837Z,55.25
2022-12-04T12:17:23.549Z,65.32
2022-12-04T12:20:06.748Z,65.72
2022-12-04T12:22:55.300Z,53.85
2022-12-04T12:25:28.469Z,58.22
2022-12-04T12:28:12.540Z,54.15
2022-12-04T12:30:48.273Z,54.60
2022-12-04T12:33:21.138Z,58.47
2022-12-04T12:35:57.426Z,53.75
2022-12-04T12:38:33.683Z,57.78
2022-12-04T12:41:06.417Z,61.38
2022-12-04T12:43:37.915Z,62.05
2022-12-04T12:46:13.488Z,53.50
2022-12-04T12:48:48.033Z,52.13
2022-12-04T12:51:30.526Z,55.25
2022-12-04T12:54:10.554Z,55.13
2022-12-04T12:56:47.909Z,58.92
2022-12-04T12:59:21.973Z,59.30
2022-12-04T13:02:00.172Z,58.05
2022-12-04T13:04:35.069Z,47.20
2022-12-04T13:07:15.882Z,55.17
2022-12-04T13:09:51.606Z,55.35
2022-12-04T13:12:21.657Z,54.35
2022-12-04T13:14:49.977Z,53.75
2022-12-04T13:17:22.493Z,51.13
2022-12-04T13:19:54.747Z,62.20
2022-12-04T13:22:31.766Z,58.80
2022-12-04T13:25:22.815Z,58.95
2022-12-04T13:28:02.872Z,55.92
2022-12-04T13:30:38.188Z,53.97
2022-12-04T13:33:22.324Z,59.60
2022-12-04T13:36:16.493Z,55.83
2022-12-04T13:38:59.591Z,54.70
2022-12-04T13:41:29.990Z,61.58
2022-12-04T13:44:02.817Z,56.90
2022-12-04T13:46:36.496Z,58.78
2022-12-04T13:49:25.246Z,75.55
2022-12-04T13:51:54.850Z,54.53
2022-12-04T13:57:10.607Z,59.42
2022-12-04T13:59:40.506Z,60.70
2022-12-04T14:02:28.722Z,61.20
2022-12-04T14:05:02.517Z,57.35
2022-12-04T14:07:34.247Z,63.45
2022-12-04T14:10:05.279Z,55.45
2022-12-04T14:12:38.325Z,56.47
2022-12-04T14:15:09.030Z,56.67
2022-12-04T14:17:40.698Z,61.35
2022-12-04T14:20:23.019Z,56.53
2022-12-04T14:22:51.319Z,63.97
2022-12-04T14:25:40.896Z,62.78
2022-12-04T14:31:15.720Z,59.00
2022-12-04T14:33:48.335Z,56.28
2022-12-04T14:36:21.410Z,61.85
2022-12-04T14:38:57.841Z,57.60
2022-12-04T14:41:27.210Z,74.07
2022-12-04T14:43:58.357Z,66.72
2022-12-04T14:46:35.132Z,69.18
2022-12-04T14:49:18.390Z,63.15
2022-12-04T14:51:56.994Z,60.13
2022-12-04T14:54:31.597Z,62.33
2022-12-04T14:57:14.945Z,66.97
2022-12-04T14:59:46.498Z,60.40
2022-12-04T15:02:18.676Z,66.97
2022-12-04T15:04:49.225Z,65.70
2022-12-04T15:07:22.779Z,71.97
2022-12-04T15:10:13.042Z,58.35
2022-12-04T15:12:46.024Z,61.10
2022-12-04T15:15:21.976Z,76.15
2022-12-04T15:18:01.214Z,58.47
2022-12-04T15:20:37.569Z,59.75
2022-12-04T15:23:07.382Z,77.47
2022-12-04T15:25:41.406Z,67.75
2022-12-04T15:28:15.208Z,69.03
2022-12-04T15:30:46.266Z,63.58
2022-12-04T15:33:23.475Z,59.58
2022-12-04T15:35:56.763Z,61.80
2022-12-04T15:38:25.459Z,58.50
2022-12-04T15:40:56.448Z,66.20
2022-12-04T15:43:29.932Z,67.15
2022-12-04T15:46:00.094Z,61.75
2022-12-04T15:48:29.881Z,58.40
2022-12-04T15:51:03.991Z,59.88
2022-12-04T15:53:34.476Z,54.08
2022-12-04T15:56:05.791Z,51.13
2022-12-04T15:58:35.365Z,49.83
2022-12-04T16:03:37.942Z,54.00
2022-12-04T16:06:16.972Z,50.25
2022-12-04T16:08:47.474Z,53.92
2022-12-04T16:11:33.710Z,50.05
2022-12-04T16:14:15.208Z,51.08
2022-12-04T16:16:46.803Z,49.20
2022-12-04T16:19:20.244Z,52.50
2022-12-04T16:21:48.685Z,49.53
2022-12-04T16:24:16.790Z,48.03
2022-12-04T16:26:44.875Z,41.20
2022-12-04T16:29:12.962Z,39.45
2022-12-04T16:31:41.235Z,49.67
2022-12-04T16:34:13.383Z,47.47
2022-12-04T16:36:42.163Z,40.58
2022-12-04T16:39:10.249Z,53.55
2022-12-04T16:41:38.559Z,50.70
2022-12-04T16:44:14.752Z,50.05
2022-12-04T16:46:43.679Z,46.10
2022-12-04T16:49:14.652Z,52.33
2022-12-04T16:51:46.856Z,51.50
2022-12-04T16:54:14.965Z,52.85
2022-12-04T16:56:43.456Z,53.72
2022-12-04T16:59:12.549Z,48.92
2022-12-04T17:01:45.420Z,48.38
2022-12-04T17:04:15.485Z,51.42
2022-12-04T17:06:44.624Z,48.35
2022-12-04T17:09:13.787Z,51.65
2022-12-04T17:11:42.253Z,49.00
2022-12-04T17:14:10.665Z,49.17
2022-12-04T17:16:42.726Z,57.33
2022-12-04T17:19:12.774Z,48.85
2022-12-04T17:21:42.642Z,53.40
2022-12-04T17:24:10.758Z,45.05
2022-12-04T17:26:38.858Z,44.45
2022-12-04T17:29:07.051Z,47.97
2022-12-04T17:31:35.198Z,50.05
2022-12-04T17:34:03.406Z,47.50
2022-12-04T17:36:31.585Z,47.67
2022-12-04T17:39:02.556Z,41.30
2022-12-04T17:41:30.883Z,52.72
2022-12-04T17:44:01.613Z,45.05
2022-12-04T17:46:29.778Z,42.75
2022-12-04T17:49:01.563Z,48.63
2022-12-04T17:51:34.999Z,47.22
2022-12-04T17:56:32.858Z,47.67
2022-12-04T17:59:01.113Z,49.67
2022-12-04T18:01:30.682Z,45.45
2022-12-04T18:06:29.577Z,44.87
2022-12-04T18:08:57.940Z,51.63
2022-12-04T18:11:29.668Z,51.67
2022-12-04T18:13:59.590Z,56.35
2022-12-04T18:16:29.806Z,52.33
2022-12-04T18:18:59.838Z,47.75
2022-12-04T18:21:28.436Z,51.90
2022-12-04T18:23:58.424Z,55.10
2022-12-04T18:26:29.109Z,48.40
2022-12-04T18:28:57.192Z,47.22
2022-12-04T18:31:25.431Z,53.30
2022-12-04T18:33:53.800Z,50.05
2022-12-04T18:36:23.964Z,46.00
2022-12-04T18:38:56.301Z,49.22
2022-12-04T18:41:25.255Z,45.33
2022-12-04T18:43:55.362Z,32.20
2022-12-04T18:46:24.325Z,48.63
2022-12-04T18:48:55.432Z,35.97
2022-12-04T18:51:27.135Z,43.67
2022-12-04T18:53:58.133Z,50.42
2022-12-04T18:56:26.731Z,44.40
2022-12-04T18:58:59.714Z,41.50
2022-12-04T19:01:29.340Z,45.25
2022-12-04T19:03:59.133Z,45.92
2022-12-04T19:06:31.810Z,41.00
2022-12-04T19:09:01.052Z,43.63
2022-12-04T19:11:29.288Z,43.40
2022-12-04T19:13:59.893Z,42.80
2022-12-04T19:16:28.791Z,49.22
2022-12-04T19:18:57.856Z,41.50
2022-12-04T19:21:26.403Z,42.08
2022-12-04T19:23:58.189Z,36.00
2022-12-04T19:26:26.757Z,40.35
2022-12-04T19:28:55.336Z,37.77
2022-12-04T19:31:27.495Z,44.03
2022-12-04T19:33:57.737Z,41.75
2022-12-04T19:36:27.123Z,39.80
2022-12-04T19:38:55.426Z,41.90
2022-12-04T19:41:25.748Z,40.28
2022-12-04T19:43:56.386Z,39.00
2022-12-04T19:46:30.137Z,43.67
2022-12-04T19:49:01.696Z,44.28
2022-12-04T19:51:32.089Z,41.50
2022-12-04T19:54:01.179Z,40.92
2022-12-04T19:56:30.730Z,34.88
2022-12-04T20:01:38.730Z,41.78
2022-12-04T20:04:09.252Z,38.50
2022-12-04T20:06:42.188Z,42.25
2022-12-04T20:09:13.170Z,42.38
2022-12-04T20:11:43.445Z,42.58
2022-12-04T20:14:11.582Z,42.80
2022-12-04T20:16:42.123Z,39.83
2022-12-04T20:19:14.530Z,45.50
2022-12-04T20:21:42.646Z,38.13
2022-12-04T20:24:13.287Z,46.20
2022-12-04T20:26:43.394Z,37.45
2022-12-04T20:29:14.014Z,39.65
2022-12-04T20:31:45.934Z,39.97
2022-12-04T20:34:16.342Z,37.58
2022-12-04T20:36:47.098Z,42.13
2022-12-04T20:39:16.505Z,43.00
2022-12-04T20:41:44.861Z,38.80
2022-12-04T20:44:16.157Z,38.63
2022-12-04T20:46:46.093Z,37.03
2022-12-04T20:49:21.190Z,39.67
2022-12-04T20:51:51.301Z,38.28
2022-12-04T20:54:21.165Z,35.15
2022-12-04T20:56:50.016Z,35.35
2022-12-04T20:59:19.542Z,36.60
2022-12-04T21:04:18.665Z,32.55
2022-12-04T21:06:47.654Z,26.92
2022-12-04T21:09:17.853Z,34.20
2022-12-04T21:11:47.934Z,36.03
2022-12-04T21:14:36.969Z,34.60
2022-12-04T21:17:09.352Z,35.55
2022-12-04T21:19:37.791Z,36.05
2022-12-04T21:22:08.823Z,32.75
2022-12-04T21:24:38.845Z,31.95
2022-12-04T21:27:08.023Z,34.33
2022-12-04T21:29:37.082Z,36.85
2022-12-04T21:32:07.963Z,33.38
2022-12-04T21:34:36.563Z,33.83
2022-12-04T21:37:04.953Z,25.23
2022-12-04T21:39:34.010Z,35.10
2022-12-04T21:42:19.679Z,35.53
2022-12-04T21:44:47.831Z,35.58
2022-12-04T21:47:17.378Z,33.17
2022-12-04T21:52:13.507Z,33.97
2022-12-04T21:54:41.568Z,32.05
2022-12-04T21:57:09.706Z,35.50
2022-12-04T21:59:37.815Z,37.17
2022-12-04T22:02:06.010Z,36.83
2022-12-04T22:04:35.904Z,36.10
2022-12-04T22:07:04.178Z,37.13
2022-12-04T22:09:32.450Z,37.03
2022-12-04T22:12:00.933Z,33.55
2022-12-04T22:14:29.046Z,30.35
2022-12-04T22:16:57.111Z,30.50
2022-12-04T22:19:25.440Z,35.47
2022-12-04T22:21:55.010Z,34.97
2022-12-04T22:26:51.130Z,30.02
2022-12-04T22:29:49.651Z,32.17
2022-12-04T22:32:07.364Z,30.77
2022-12-04T22:34:35.552Z,36.00
2022-12-04T22:37:05.035Z,32.20
2022-12-04T22:39:33.810Z,29.98
2022-12-04T22:42:02.078Z,25.67
2022-12-04T22:44:30.170Z,31.15
2022-12-04T22:46:58.325Z,33.50
2022-12-04T22:49:26.714Z,34.35
2022-12-04T22:51:54.791Z,33.28
2022-12-04T22:54:24.355Z,32.15
2022-12-04T22:59:20.355Z,26.33
2022-12-04T23:01:48.448Z,27.83
2022-12-04T23:04:16.755Z,28.27
2022-12-04T23:06:44.890Z,30.27
2022-12-04T23:09:15.070Z,32.90
2022-12-04T23:11:45.485Z,31.35
2022-12-04T23:14:15.601Z,32.35
2022-12-04T23:16:44.823Z,32.88
2022-12-04T23:19:14.769Z,31.63
2022-12-04T23:21:43.136Z,32.85
2022-12-04T23:24:12.241Z,31.30
2022-12-04T23:26:43.557Z,33.47
2022-12-04T23:29:44.400Z,33.58
2022-12-04T23:32:02.170Z,28.92
2022-12-04T23:34:30.660Z,33.03
2022-12-04T23:36:58.778Z,33.72
2022-12-04T23:39:26.933Z,32.00
2022-12-04T23:41:55.050Z,33.40
2022-12-04T23:44:24.900Z,33.13
2022-12-04T23:46:53.371Z,33.60
2022-12-04T23:49:21.610Z,34.50
2022-12-04T23:51:49.822Z,32.33
2022-12-04T23:54:18.004Z,36.13
2022-12-04T23:56:46.239Z,37.47
2022-12-04T23:59:14.337Z,43.22
